createdAt,value
2019-05-28T00:01:35.242Z,6.17
2019-05-28T00:04:03.860Z,6.50
2019-05-28T00:06:32.336Z,5.90
2019-05-28T00:09:00.785Z,6.30
2019-05-28T00:11:29.270Z,6.23
2019-05-28T00:13:57.714Z,5.83
2019-05-28T00:16:26.162Z,6.50
2019-05-28T00:18:54.620Z,6.20
2019-05-28T00:21:23.047Z,6.27
2019-05-28T00:23:51.550Z,5.27
2019-05-28T00:26:20.003Z,6.00
2019-05-28T00:28:48.449Z,5.50
2019-05-28T00:31:16.910Z,5.47
2019-05-28T00:33:45.390Z,6.10
2019-05-28T00:36:13.844Z,6.03
2019-05-28T00:38:42.286Z,5.63
2019-05-28T00:41:10.749Z,5.03
2019-05-28T00:43:39.263Z,4.83
2019-05-28T00:46:07.713Z,5.17
2019-05-28T00:48:36.130Z,5.50
2019-05-28T00:51:04.659Z,5.67
2019-05-28T00:53:33.134Z,5.57
2019-05-28T00:56:03.252Z,5.80
2019-05-28T00:58:33.652Z,5.27
2019-05-28T01:01:02.090Z,5.50
2019-05-28T01:03:30.569Z,4.90
2019-05-28T01:05:59.005Z,5.63
2019-05-28T01:08:27.552Z,5.50
2019-05-28T01:10:55.986Z,5.83
2019-05-28T01:13:24.442Z,6.10
2019-05-28T01:15:52.933Z,5.97
2019-05-28T01:18:21.452Z,6.77
2019-05-28T01:20:49.906Z,6.20
2019-05-28T01:23:18.408Z,6.60
2019-05-28T01:25:46.820Z,6.50
2019-05-28T01:28:15.299Z,7.10
2019-05-28T01:30:54.681Z,6.60
2019-05-28T01:33:13.894Z,5.60
2019-05-28T01:35:42.371Z,5.30
2019-05-28T01:38:10.807Z,6.03
2019-05-28T01:40:39.243Z,5.33
2019-05-28T01:43:07.690Z,5.77
2019-05-28T01:45:36.133Z,5.53
2019-05-28T01:48:04.666Z,5.37
2019-05-28T01:50:33.112Z,5.90
2019-05-28T01:53:01.581Z,5.97
2019-05-28T01:55:30.059Z,6.07
2019-05-28T01:57:58.519Z,5.57
2019-05-28T02:00:26.967Z,6.37
2019-05-28T02:02:55.633Z,6.07
2019-05-28T02:05:24.232Z,5.80
2019-05-28T02:07:52.692Z,6.20
2019-05-28T02:10:21.613Z,5.90
2019-05-28T02:12:50.146Z,5.67
2019-05-28T02:15:19.130Z,5.70
2019-05-28T02:17:48.987Z,5.43
2019-05-28T02:20:17.792Z,5.17
2019-05-28T02:22:46.262Z,4.83
2019-05-28T02:25:15.340Z,4.93
2019-05-28T02:27:43.819Z,4.73
2019-05-28T02:30:14.150Z,4.67
2019-05-28T02:32:42.640Z,4.53
2019-05-28T02:35:11.869Z,4.73
2019-05-28T02:37:40.411Z,4.43
2019-05-28T02:40:09.605Z,4.83
2019-05-28T02:42:38.217Z,4.67
2019-05-28T02:45:11.876Z,4.57
2019-05-28T02:47:40.395Z,4.87
2019-05-28T02:50:09.913Z,5.37
2019-05-28T02:52:39.798Z,4.80
2019-05-28T02:55:09.507Z,4.23
2019-05-28T02:57:42.889Z,4.37
2019-05-28T03:00:17.132Z,4.87
2019-05-28T03:02:48.411Z,4.73
2019-05-28T03:05:17.999Z,4.60
2019-05-28T03:07:48.327Z,4.50
2019-05-28T03:10:19.769Z,4.00
2019-05-28T03:12:48.238Z,4.50
2019-05-28T03:15:17.007Z,4.47
2019-05-28T03:17:47.405Z,4.73
2019-05-28T03:20:16.889Z,4.97
2019-05-28T03:22:46.700Z,4.40
2019-05-28T03:25:18.205Z,4.33
2019-05-28T03:27:46.638Z,5.00
2019-05-28T03:30:15.253Z,4.30
2019-05-28T03:32:43.714Z,3.97
2019-05-28T03:35:12.487Z,4.57
2019-05-28T03:37:42.713Z,4.20
2019-05-28T03:40:12.886Z,4.23
2019-05-28T03:42:41.316Z,4.07
2019-05-28T03:45:10.260Z,4.30
2019-05-28T03:47:38.739Z,4.80
2019-05-28T03:50:07.943Z,4.73
2019-05-28T03:52:36.947Z,4.87
2019-05-28T03:55:08.378Z,4.03
2019-05-28T03:57:36.816Z,4.83
2019-05-28T04:00:08.607Z,4.60
2019-05-28T04:02:37.075Z,4.97
2019-05-28T04:05:05.893Z,4.80
2019-05-28T04:07:34.524Z,5.67
2019-05-28T04:10:02.994Z,4.67
2019-05-28T04:12:31.454Z,5.03
2019-05-28T04:14:59.894Z,5.30
2019-05-28T04:17:28.347Z,4.83
2019-05-28T04:19:56.807Z,5.57
2019-05-28T04:22:25.260Z,4.80
2019-05-28T04:24:53.742Z,4.67
2019-05-28T04:27:22.194Z,5.27
2019-05-28T04:29:50.727Z,5.13
2019-05-28T04:32:19.202Z,6.17
2019-05-28T04:34:47.649Z,5.87
2019-05-28T04:37:16.119Z,4.47
2019-05-28T04:39:44.586Z,4.70
2019-05-28T04:42:13.072Z,5.50
2019-05-28T04:44:41.518Z,4.27
2019-05-28T04:47:09.983Z,5.63
2019-05-28T04:49:38.468Z,4.73
2019-05-28T04:52:06.911Z,5.37
2019-05-28T04:54:35.402Z,5.20
2019-05-28T04:57:03.856Z,4.73
2019-05-28T04:59:33.826Z,4.83
2019-05-28T05:02:02.304Z,4.30
2019-05-28T05:04:30.754Z,5.10
2019-05-28T05:06:59.198Z,5.03
2019-05-28T05:09:27.665Z,4.60
2019-05-28T05:11:56.118Z,4.90
2019-05-28T05:14:24.602Z,5.93
2019-05-28T05:16:53.025Z,5.30
2019-05-28T05:19:21.479Z,6.37
2019-05-28T05:21:49.935Z,6.07
2019-05-28T05:24:18.382Z,5.13
2019-05-28T05:26:46.844Z,5.03
2019-05-28T05:29:15.367Z,4.50
2019-05-28T05:31:43.832Z,5.03
2019-05-28T05:34:12.317Z,5.20
2019-05-28T05:36:40.750Z,6.03
2019-05-28T05:39:09.530Z,5.50
2019-05-28T05:41:37.994Z,5.33
2019-05-28T05:44:06.464Z,5.27
2019-05-28T05:46:34.930Z,4.70
2019-05-28T05:49:03.371Z,4.57
2019-05-28T05:51:31.840Z,4.57
2019-05-28T05:54:00.290Z,5.07
2019-05-28T05:56:28.729Z,5.50
2019-05-28T05:58:57.190Z,5.03
2019-05-28T06:01:25.704Z,5.30
2019-05-28T06:03:54.181Z,4.50
2019-05-28T06:06:22.652Z,4.03
2019-05-28T06:08:51.111Z,3.73
2019-05-28T06:11:19.580Z,4.67
2019-05-28T06:13:48.038Z,3.60
2019-05-28T06:16:16.508Z,4.27
2019-05-28T06:18:45.030Z,4.20
2019-05-28T06:21:18.398Z,3.80
2019-05-28T06:23:43.738Z,3.20
2019-05-28T06:26:12.176Z,3.73
2019-05-28T06:28:40.649Z,3.80
2019-05-28T06:31:09.123Z,4.03
2019-05-28T06:33:37.600Z,3.73
2019-05-28T06:36:06.033Z,3.80
2019-05-28T06:38:34.507Z,3.67
2019-05-28T06:41:02.949Z,3.90
2019-05-28T06:43:31.420Z,2.90
2019-05-28T06:45:59.860Z,3.70
2019-05-28T06:48:28.323Z,3.40
2019-05-28T06:50:56.759Z,3.73
2019-05-28T06:53:25.219Z,3.30
2019-05-28T06:55:53.705Z,3.67
2019-05-28T06:58:37.940Z,3.93
2019-05-28T07:00:52.504Z,3.50
2019-05-28T07:03:21.130Z,3.47
2019-05-28T07:06:05.484Z,3.53
2019-05-28T07:08:19.772Z,4.00
2019-05-28T07:10:57.735Z,4.10
2019-05-28T07:13:18.379Z,3.20
2019-05-28T07:15:46.847Z,3.53
2019-05-28T07:18:15.305Z,3.30
2019-05-28T07:20:43.818Z,3.40
2019-05-28T07:23:12.310Z,3.10
2019-05-28T07:25:40.798Z,3.57
2019-05-28T07:28:11.499Z,3.77
2019-05-28T07:30:39.474Z,2.80
2019-05-28T07:33:07.957Z,3.30
2019-05-28T07:35:45.215Z,2.80
2019-05-28T07:38:06.773Z,3.00
2019-05-28T07:40:35.245Z,3.10
2019-05-28T07:43:03.687Z,3.47
2019-05-28T07:45:32.125Z,3.33
2019-05-28T07:48:00.588Z,3.13
2019-05-28T07:50:29.043Z,3.47
2019-05-28T07:52:57.490Z,3.17
2019-05-28T07:55:26.571Z,3.43
2019-05-28T07:57:55.059Z,3.70
2019-05-28T08:00:38.805Z,3.77
2019-05-28T08:03:08.093Z,3.27
2019-05-28T08:05:36.894Z,3.83
2019-05-28T08:08:08.255Z,4.30
2019-05-28T08:10:37.060Z,3.70
2019-05-28T08:13:06.572Z,3.30
2019-05-28T08:15:36.190Z,3.07
2019-05-28T08:18:05.600Z,3.50
2019-05-28T08:20:34.612Z,3.20
2019-05-28T08:23:03.097Z,3.83
2019-05-28T08:25:46.165Z,4.60
2019-05-28T08:28:18.839Z,3.50
2019-05-28T08:30:32.078Z,3.50
2019-05-28T08:33:00.516Z,4.13
2019-05-28T08:35:28.982Z,3.33
2019-05-28T08:37:57.467Z,3.20
2019-05-28T08:40:26.736Z,3.13
2019-05-28T08:42:55.225Z,3.00
2019-05-28T08:45:23.738Z,2.40
2019-05-28T08:47:52.183Z,2.50
2019-05-28T08:50:33.948Z,2.13
2019-05-28T08:52:50.991Z,2.50
2019-05-28T08:55:19.472Z,2.57
2019-05-28T08:57:47.884Z,4.53
2019-05-28T09:00:25.203Z,2.90
2019-05-28T09:02:53.714Z,1.93
2019-05-28T09:05:26.245Z,2.47
2019-05-28T09:07:52.392Z,2.50
2019-05-28T09:10:20.932Z,3.33
2019-05-28T09:12:49.360Z,2.90
2019-05-28T09:15:17.806Z,2.80
2019-05-28T09:17:46.244Z,2.83
2019-05-28T09:20:15.372Z,3.30
2019-05-28T09:22:43.869Z,2.80
2019-05-28T09:25:12.336Z,3.30
2019-05-28T09:27:40.775Z,3.60
2019-05-28T09:30:10.964Z,3.97
2019-05-28T09:32:39.493Z,3.40
2019-05-28T09:35:08.870Z,2.70
2019-05-28T09:37:37.388Z,3.83
2019-05-28T09:40:06.887Z,3.57
2019-05-28T09:42:35.350Z,3.67
2019-05-28T09:45:21.302Z,3.00
2019-05-28T09:47:35.587Z,3.93
2019-05-28T09:50:21.191Z,3.23
2019-05-28T09:52:53.731Z,2.80
2019-05-28T09:55:09.885Z,3.63
2019-05-28T09:57:47.053Z,3.90
2019-05-28T10:00:18.390Z,3.07
2019-05-28T10:02:46.942Z,2.90
2019-05-28T10:05:16.056Z,2.73
2019-05-28T10:07:44.493Z,3.63
2019-05-28T10:10:14.891Z,2.93
2019-05-28T10:12:43.359Z,3.57
2019-05-28T10:15:12.276Z,2.97
2019-05-28T10:17:40.688Z,3.17
2019-05-28T10:20:09.997Z,3.10
2019-05-28T10:22:38.484Z,2.60
2019-05-28T10:25:09.452Z,3.00
2019-05-28T10:27:37.941Z,3.67
2019-05-28T10:30:08.262Z,2.80
2019-05-28T10:32:36.801Z,2.60
2019-05-28T10:35:07.373Z,2.60
2019-05-28T10:37:35.989Z,3.03
2019-05-28T10:40:07.565Z,2.80
2019-05-28T10:42:36.022Z,3.03
2019-05-28T10:45:09.735Z,3.70
2019-05-28T10:47:38.185Z,2.53
2019-05-28T10:50:08.156Z,4.03
2019-05-28T10:52:36.665Z,2.60
2019-05-28T10:55:06.981Z,2.70
2019-05-28T10:57:35.514Z,3.30
2019-05-28T11:00:08.981Z,2.47
2019-05-28T11:02:37.410Z,3.30
2019-05-28T11:05:07.806Z,2.57
2019-05-28T11:07:36.247Z,3.47
2019-05-28T11:10:22.489Z,2.93
2019-05-28T11:12:37.183Z,2.83
2019-05-28T11:15:09.085Z,2.50
2019-05-28T11:17:37.686Z,2.77
2019-05-28T11:20:11.626Z,2.90
2019-05-28T11:22:40.158Z,2.50
2019-05-28T11:25:10.264Z,3.40
2019-05-28T11:27:38.740Z,3.40
2019-05-28T11:30:10.609Z,2.50
2019-05-28T11:32:39.063Z,2.53
2019-05-28T11:35:08.248Z,2.17
2019-05-28T11:37:36.747Z,3.13
2019-05-28T11:40:08.212Z,3.57
2019-05-28T11:42:36.690Z,3.20
2019-05-28T11:45:08.811Z,3.07
2019-05-28T11:47:37.370Z,2.77
2019-05-28T11:50:08.882Z,3.13
2019-05-28T11:52:37.355Z,2.63
2019-05-28T11:55:09.019Z,3.70
2019-05-28T11:57:37.500Z,2.83
2019-05-28T12:00:07.994Z,2.93
2019-05-28T12:02:36.440Z,2.80
2019-05-28T12:05:07.456Z,2.83
2019-05-28T12:07:35.884Z,2.47
2019-05-28T12:10:05.789Z,2.93
2019-05-28T12:12:35.991Z,3.03
2019-05-28T12:15:07.514Z,2.53
2019-05-28T12:17:42.611Z,3.77
2019-05-28T12:20:07.279Z,2.93
2019-05-28T12:22:35.707Z,2.87
2019-05-28T12:25:06.494Z,2.90
2019-05-28T12:27:35.235Z,2.43
2019-05-28T12:30:05.342Z,2.63
2019-05-28T12:32:33.931Z,3.00
2019-05-28T12:35:02.386Z,2.60
2019-05-28T12:37:46.944Z,2.63
2019-05-28T12:40:01.036Z,2.90
2019-05-28T12:42:29.514Z,2.90
2019-05-28T12:45:08.909Z,2.80
2019-05-28T12:47:28.221Z,4.07
2019-05-28T12:50:16.620Z,3.17
2019-05-28T12:52:26.857Z,3.30
2019-05-28T12:54:55.328Z,2.67
2019-05-28T12:57:23.791Z,3.50
2019-05-28T12:59:52.261Z,3.43
2019-05-28T13:02:20.719Z,3.00
2019-05-28T13:04:49.187Z,2.73
2019-05-28T13:07:17.701Z,3.80
2019-05-28T13:09:49.005Z,3.30
2019-05-28T13:12:16.369Z,6.73
2019-05-28T13:14:44.895Z,2.83
2019-05-28T13:17:13.344Z,3.27
2019-05-28T13:19:41.877Z,3.43
2019-05-28T13:22:10.338Z,3.20
2019-05-28T13:24:38.792Z,2.73
2019-05-28T13:27:17.666Z,3.80
2019-05-28T13:29:37.432Z,3.40
2019-05-28T13:32:08.361Z,3.23
2019-05-28T13:34:36.131Z,3.40
2019-05-28T13:37:04.600Z,3.20
2019-05-28T13:39:33.060Z,3.00
2019-05-28T13:42:01.529Z,3.50
2019-05-28T13:44:30.016Z,3.73
2019-05-28T13:46:58.470Z,2.90
2019-05-28T13:49:26.918Z,3.27
2019-05-28T13:52:11.072Z,2.60
2019-05-28T13:54:25.545Z,3.83
2019-05-28T13:56:54.029Z,2.10
2019-05-28T13:59:22.472Z,2.30
2019-05-28T14:01:50.935Z,2.90
2019-05-28T14:04:20.266Z,2.70
2019-05-28T14:06:48.812Z,3.07
2019-05-28T14:09:17.285Z,2.97
2019-05-28T14:11:45.728Z,3.23
2019-05-28T14:14:14.174Z,3.17
2019-05-28T14:16:42.630Z,2.73
2019-05-28T14:19:11.074Z,3.50
2019-05-28T14:21:39.532Z,2.20
2019-05-28T14:24:08.001Z,2.60
2019-05-28T14:26:36.533Z,2.33
2019-05-28T14:29:05.190Z,2.87
2019-05-28T14:31:33.649Z,2.50
2019-05-28T14:34:02.107Z,2.17
2019-05-28T14:36:30.572Z,2.10
2019-05-28T14:39:03.380Z,2.80
2019-05-28T14:41:29.204Z,2.47
2019-05-28T14:43:57.656Z,2.80
2019-05-28T14:46:26.120Z,2.30
2019-05-28T14:48:54.545Z,2.50
2019-05-28T14:51:23.155Z,2.67
2019-05-28T14:53:52.081Z,1.97
2019-05-28T14:56:20.570Z,2.50
2019-05-28T14:58:49.032Z,3.40
2019-05-28T15:01:17.515Z,2.47
2019-05-28T15:03:45.992Z,2.80
2019-05-28T15:06:14.457Z,6.60
2019-05-28T15:08:42.904Z,2.10
2019-05-28T15:11:11.359Z,2.67
2019-05-28T15:13:39.843Z,2.80
2019-05-28T15:16:08.297Z,2.43
2019-05-28T15:18:36.773Z,2.30
2019-05-28T15:21:05.212Z,2.27
2019-05-28T15:23:33.703Z,1.90
2019-05-28T15:26:02.245Z,2.67
2019-05-28T15:28:30.703Z,2.77
2019-05-28T15:30:59.187Z,2.73
2019-05-28T15:33:27.662Z,1.70
2019-05-28T15:35:57.799Z,5.63
2019-05-28T15:38:26.248Z,2.77
2019-05-28T15:40:54.749Z,4.50
2019-05-28T15:43:23.218Z,2.33
2019-05-28T15:45:51.657Z,2.27
2019-05-28T15:48:20.130Z,3.37
2019-05-28T15:50:48.585Z,2.00
2019-05-28T15:53:17.079Z,3.10
2019-05-28T15:55:45.527Z,2.23
2019-05-28T15:58:14.007Z,2.20
2019-05-28T16:00:42.495Z,2.53
2019-05-28T16:03:10.979Z,2.10
2019-05-28T16:05:39.465Z,3.03
2019-05-28T16:08:07.907Z,2.07
2019-05-28T16:10:36.401Z,1.83
2019-05-28T16:13:04.972Z,1.63
2019-05-28T16:15:33.441Z,2.30
2019-05-28T16:18:01.943Z,2.03
2019-05-28T16:20:30.385Z,2.13
2019-05-28T16:22:58.859Z,1.90
2019-05-28T16:25:27.352Z,1.83
2019-05-28T16:27:55.830Z,2.03
2019-05-28T16:30:25.940Z,1.57
2019-05-28T16:32:54.413Z,2.00
2019-05-28T16:35:22.952Z,2.40
2019-05-28T16:37:51.393Z,1.83
2019-05-28T16:40:20.342Z,1.57
2019-05-28T16:42:48.807Z,2.03
2019-05-28T16:45:17.777Z,1.20
2019-05-28T16:47:46.204Z,2.43
2019-05-28T16:50:15.428Z,1.70
2019-05-28T16:52:43.923Z,1.90
2019-05-28T16:55:14.008Z,1.70
2019-05-28T16:57:42.485Z,1.80
2019-05-28T17:00:11.616Z,1.70
2019-05-28T17:02:40.115Z,2.20
2019-05-28T17:05:09.306Z,1.80
2019-05-28T17:07:37.768Z,4.70
2019-05-28T17:10:07.251Z,1.57
2019-05-28T17:12:35.901Z,2.00
2019-05-28T17:15:06.791Z,2.00
2019-05-28T17:17:35.235Z,2.03
2019-05-28T17:20:06.245Z,2.27
2019-05-28T17:22:34.683Z,1.60
2019-05-28T17:25:03.881Z,2.97
2019-05-28T17:27:32.351Z,1.53
2019-05-28T17:30:17.340Z,1.97
2019-05-28T17:32:30.965Z,1.90
2019-05-28T17:34:59.435Z,1.93
2019-05-28T17:37:27.889Z,2.00
2019-05-28T17:39:56.321Z,3.13
2019-05-28T17:42:24.787Z,1.97
2019-05-28T17:44:53.696Z,2.03
2019-05-28T17:47:22.143Z,2.63
2019-05-28T17:49:50.579Z,2.33
2019-05-28T17:52:19.098Z,2.03
2019-05-28T17:54:47.566Z,1.80
2019-05-28T17:57:16.037Z,1.57
2019-05-28T17:59:44.481Z,2.17
2019-05-28T18:02:13.026Z,2.00
2019-05-28T18:04:41.620Z,1.80
2019-05-28T18:07:10.055Z,2.03
2019-05-28T18:09:38.566Z,1.90
2019-05-28T18:12:07.070Z,1.53
2019-05-28T18:14:35.502Z,1.67
2019-05-28T18:17:04.031Z,2.70
2019-05-28T18:19:32.471Z,1.90
2019-05-28T18:22:00.957Z,1.90
2019-05-28T18:24:29.406Z,1.63
2019-05-28T18:26:57.878Z,2.00
2019-05-28T18:29:26.338Z,4.20
2019-05-28T18:31:54.808Z,1.80
2019-05-28T18:34:23.268Z,2.00
2019-05-28T18:36:51.725Z,1.60
2019-05-28T18:39:20.196Z,2.10
2019-05-28T18:41:48.634Z,2.60
2019-05-28T18:44:17.081Z,3.17
2019-05-28T18:46:45.556Z,2.77
2019-05-28T18:49:13.987Z,2.00
2019-05-28T18:51:42.448Z,1.97
2019-05-28T18:54:10.922Z,1.50
2019-05-28T18:56:39.416Z,3.03
2019-05-28T18:59:07.894Z,2.87
2019-05-28T19:01:36.389Z,2.07
2019-05-28T19:04:04.863Z,1.57
2019-05-28T19:06:33.282Z,1.50
2019-05-28T19:09:01.762Z,1.90
2019-05-28T19:11:37.963Z,1.80
2019-05-28T19:14:00.423Z,2.37
2019-05-28T19:16:28.918Z,2.37
2019-05-28T19:18:57.405Z,2.93
2019-05-28T19:21:25.894Z,2.00
2019-05-28T19:23:54.340Z,2.73
2019-05-28T19:26:22.794Z,2.90
2019-05-28T19:28:51.254Z,1.80
2019-05-28T19:31:19.692Z,1.73
2019-05-28T19:33:48.555Z,2.00
2019-05-28T19:36:18.518Z,1.73
2019-05-28T19:38:48.076Z,1.77
2019-05-28T19:41:16.554Z,2.10
2019-05-28T19:43:44.985Z,1.90
2019-05-28T19:46:13.466Z,1.60
2019-05-28T19:48:41.918Z,2.40
2019-05-28T19:51:10.410Z,1.60
2019-05-28T19:53:38.852Z,1.57
2019-05-28T19:56:07.319Z,1.60
2019-05-28T19:58:35.769Z,1.60
2019-05-28T20:01:04.411Z,3.37
2019-05-28T20:03:32.887Z,14.80
2019-05-28T20:06:01.439Z,2.00
2019-05-28T20:08:29.892Z,2.13
2019-05-28T20:10:58.345Z,1.50
2019-05-28T20:13:26.791Z,1.73
2019-05-28T20:15:56.974Z,2.13
2019-05-28T20:18:27.006Z,1.40
2019-05-28T20:20:55.935Z,1.60
2019-05-28T20:23:24.528Z,1.70
2019-05-28T20:25:54.494Z,2.27
2019-05-28T20:28:23.028Z,1.80
2019-05-28T20:30:51.504Z,1.83
2019-05-28T20:33:20.044Z,2.00
2019-05-28T20:35:48.572Z,2.20
2019-05-28T20:38:17.060Z,1.63
2019-05-28T20:40:47.071Z,1.80
2019-05-28T20:43:15.462Z,1.80
2019-05-28T20:45:43.976Z,1.80
2019-05-28T20:48:12.406Z,1.67
2019-05-28T20:50:40.852Z,1.37
2019-05-28T20:53:09.306Z,1.60
2019-05-28T20:55:37.746Z,1.80
2019-05-28T20:58:06.212Z,1.50
2019-05-28T21:00:34.689Z,1.80
2019-05-28T21:03:03.126Z,1.60
2019-05-28T21:05:31.578Z,2.30
2019-05-28T21:08:00.046Z,2.57
2019-05-28T21:10:28.543Z,1.50
2019-05-28T21:12:57.035Z,1.63
2019-05-28T21:15:25.474Z,1.47
2019-05-28T21:17:55.297Z,1.83
2019-05-28T21:20:23.873Z,1.67
2019-05-28T21:22:53.667Z,1.70
2019-05-28T21:25:22.524Z,1.73
2019-05-28T21:27:52.154Z,1.50
2019-05-28T21:30:21.131Z,1.47
2019-05-28T21:32:50.646Z,2.80
2019-05-28T21:35:19.223Z,2.37
2019-05-28T21:37:47.710Z,1.90
2019-05-28T21:40:17.746Z,1.43
2019-05-28T21:42:58.654Z,1.57
2019-05-28T21:45:18.676Z,1.70
2019-05-28T21:47:47.167Z,1.43
2019-05-28T21:50:15.933Z,2.10
2019-05-28T21:52:44.360Z,2.10
2019-05-28T21:55:13.182Z,1.60
2019-05-28T21:57:41.610Z,1.67
2019-05-28T22:00:19.751Z,1.63
2019-05-28T22:02:48.213Z,2.03
2019-05-28T22:05:16.841Z,2.00
2019-05-28T22:07:45.264Z,1.40
2019-05-28T22:10:14.071Z,2.13
2019-05-28T22:12:42.532Z,1.57
2019-05-28T22:15:11.042Z,1.63
2019-05-28T22:17:39.524Z,1.70
2019-05-28T22:20:08.857Z,1.60
2019-05-28T22:22:37.300Z,1.67
2019-05-28T22:25:09.012Z,1.87
2019-05-28T22:27:37.489Z,2.60
2019-05-28T22:30:08.040Z,1.70
2019-05-28T22:32:36.494Z,1.70
2019-05-28T22:35:08.012Z,2.00
2019-05-28T22:37:36.635Z,1.60
2019-05-28T22:40:08.410Z,1.53
2019-05-28T22:42:36.950Z,1.90
2019-05-28T22:45:07.171Z,1.60
2019-05-28T22:47:35.679Z,1.73
2019-05-28T22:50:19.444Z,2.43
2019-05-28T22:52:39.014Z,2.00
2019-05-28T22:55:08.605Z,2.20
2019-05-28T22:57:37.063Z,3.13
2019-05-28T23:00:07.164Z,1.87
2019-05-28T23:02:35.602Z,1.97
2019-05-28T23:05:07.270Z,1.50
2019-05-28T23:07:35.760Z,2.60
2019-05-28T23:10:05.631Z,1.73
2019-05-28T23:12:34.072Z,1.70
2019-05-28T23:15:02.517Z,1.40
2019-05-28T23:17:30.969Z,1.50
2019-05-28T23:20:00.543Z,1.63
2019-05-28T23:22:29.157Z,1.80
2019-05-28T23:24:58.709Z,1.53
2019-05-28T23:27:27.155Z,2.20
2019-05-28T23:29:55.641Z,1.50
2019-05-28T23:32:24.279Z,1.43
2019-05-28T23:34:56.089Z,1.43
2019-05-28T23:37:22.941Z,2.80
2019-05-28T23:39:51.384Z,1.70
2019-05-28T23:42:19.841Z,1.70
2019-05-28T23:44:48.282Z,1.60
2019-05-28T23:47:16.770Z,1.73
2019-05-28T23:49:45.222Z,1.60
2019-05-28T23:52:14.801Z,1.50
2019-05-28T23:54:43.325Z,2.10
2019-05-28T23:57:11.978Z,1.80
2019-05-28T23:59:40.433Z,2.20
